sensor_id;sensor_type;location;lat;lon;timestamp;pressure;altitude;pressure_sealevel;temperature;humidity
4326;BME280;58429;49.826;10.880;2022-10-17T00:00:24;99225;;;14.03;81.01
4326;BME280;58429;49.826;10.880;2022-10-17T00:01:24;99225;;;14.01;81.1
4326;BME280;58429;49.826;10.880;2022-10-17T00:02:24;99230;;;14.01;81.23
4326;BME280;58429;49.826;10.880;2022-10-17T00:03:24;99226;;;13.97;81.53
4326;BME280;58429;49.826;10.880;2022-10-17T00:04:24;99224;;;14.02;81.76
4326;BME280;58429;49.826;10.880;2022-10-17T00:05:24;99230;;;14.01;82.3
4326;BME280;58429;49.826;10.880;2022-10-17T00:06:24;99228;;;14.02;82.31
4326;BME280;58429;49.826;10.880;2022-10-17T00:07:24;99228;;;14.01;82.42
4326;BME280;58429;49.826;10.880;2022-10-17T00:08:24;99235;;;14.02;82.18
4326;BME280;58429;49.826;10.880;2022-10-17T00:09:24;99234;;;14;82.13
4326;BME280;58429;49.826;10.880;2022-10-17T00:10:24;99229;;;13.95;82.41
4326;BME280;58429;49.826;10.880;2022-10-17T00:11:24;99235;;;13.99;82.41
4326;BME280;58429;49.826;10.880;2022-10-17T00:12:24;99235;;;13.94;82.29
4326;BME280;58429;49.826;10.880;2022-10-17T00:13:24;99230;;;13.96;82.96
4326;BME280;58429;49.826;10.880;2022-10-17T00:14:24;99235;;;13.98;83.06
4326;BME280;58429;49.826;10.880;2022-10-17T00:15:24;99234;;;14;83.2
4326;BME280;58429;49.826;10.880;2022-10-17T00:16:24;99238;;;14.07;83.32
4326;BME280;58429;49.826;10.880;2022-10-17T00:17:24;99231;;;14.06;83.14
4326;BME280;58429;49.826;10.880;2022-10-17T00:18:24;99235;;;14.11;83.25
4326;BME280;58429;49.826;10.880;2022-10-17T00:19:24;99238;;;14.06;83.05
4326;BME280;58429;49.826;10.880;2022-10-17T00:20:24;99239;;;14.06;83.26
4326;BME280;58429;49.826;10.880;2022-10-17T00:21:24;99239;;;14.06;83.51
4326;BME280;58429;49.826;10.880;2022-10-17T00:22:24;99239;;;14.09;83.63
4326;BME280;58429;49.826;10.880;2022-10-17T00:23:24;99243;;;14.13;83.7
4326;BME280;58429;49.826;10.880;2022-10-17T00:24:24;99242;;;14.16;83.66
4326;BME280;58429;49.826;10.880;2022-10-17T00:25:24;99240;;;14.18;83.76
4326;BME280;58429;49.826;10.880;2022-10-17T00:26:24;99246;;;14.23;84.07
4326;BME280;58429;49.826;10.880;2022-10-17T00:27:24;99244;;;14.26;84.78
4326;BME280;58429;49.826;10.880;2022-10-17T00:28:24;99240;;;14.33;84.48
4326;BME280;58429;49.826;10.880;2022-10-17T00:29:24;99237;;;14.33;84.3
4326;BME280;58429;49.826;10.880;2022-10-17T00:30:24;99245;;;14.34;84.27
4326;BME280;58429;49.826;10.880;2022-10-17T00:31:24;99243;;;14.34;84.34
4326;BME280;58429;49.826;10.880;2022-10-17T00:32:24;99248;;;14.34;84.26
4326;BME280;58429;49.826;10.880;2022-10-17T00:33:24;99247;;;14.36;84.48
4326;BME280;58429;49.826;10.880;2022-10-17T00:34:24;99253;;;14.36;84.39
4326;BME280;58429;49.826;10.880;2022-10-17T00:35:24;99254;;;14.38;84.24
4326;BME280;58429;49.826;10.880;2022-10-17T00:36:25;99244;;;14.41;84.29
4326;BME280;58429;49.826;10.880;2022-10-17T00:37:24;99252;;;14.36;84.13
4326;BME280;58429;49.826;10.880;2022-10-17T00:38:25;99249;;;14.37;84.07
4326;BME280;58429;49.826;10.880;2022-10-17T00:39:24;99251;;;14.36;84.07
4326;BME280;58429;49.826;10.880;2022-10-17T00:40:24;99249;;;14.35;83.94
4326;BME280;58429;49.826;10.880;2022-10-17T00:41:26;99256;;;14.35;84.03
4326;BME280;58429;49.826;10.880;2022-10-17T00:42:24;99251;;;14.34;84.12
4326;BME280;58429;49.826;10.880;2022-10-17T00:43:24;99250;;;14.34;84.15
4326;BME280;58429;49.826;10.880;2022-10-17T00:44:58;99254;;;14.34;84.17
4326;BME280;58429;49.826;10.880;2022-10-17T00:45:25;99250;;;14.34;84.24
4326;BME280;58429;49.826;10.880;2022-10-17T00:46:25;99258;;;14.36;84.24
4326;BME280;58429;49.826;10.880;2022-10-17T00:47:24;99251;;;14.36;84.11
4326;BME280;58429;49.826;10.880;2022-10-17T00:48:24;99253;;;14.34;83.89
4326;BME280;58429;49.826;10.880;2022-10-17T00:49:25;99258;;;14.33;83.61
4326;BME280;58429;49.826;10.880;2022-10-17T00:50:24;99260;;;14.31;83.44
4326;BME280;58429;49.826;10.880;2022-10-17T00:51:26;99254;;;14.26;83.29
4326;BME280;58429;49.826;10.880;2022-10-17T00:52:25;99258;;;14.2;83.13
4326;BME280;58429;49.826;10.880;2022-10-17T00:53:24;99256;;;14.2;83
4326;BME280;58429;49.826;10.880;2022-10-17T00:54:26;99256;;;14.14;82.88
4326;BME280;58429;49.826;10.880;2022-10-17T00:55:26;99252;;;14.1;82.83
4326;BME280;58429;49.826;10.880;2022-10-17T00:56:24;99260;;;14.07;82.76
4326;BME280;58429;49.826;10.880;2022-10-17T00:57:25;99253;;;14.08;82.62
4326;BME280;58429;49.826;10.880;2022-10-17T00:58:24;99250;;;14.06;82.53
4326;BME280;58429;49.826;10.880;2022-10-17T00:59:24;99255;;;14.02;82.53
4326;BME280;58429;49.826;10.880;2022-10-17T01:00:24;99252;;;13.98;82.68
4326;BME280;58429;49.826;10.880;2022-10-17T01:01:24;99254;;;13.96;83.03
4326;BME280;58429;49.826;10.880;2022-10-17T01:02:24;99255;;;13.95;83
4326;BME280;58429;49.826;10.880;2022-10-17T01:03:24;99256;;;13.93;83.46
4326;BME280;58429;49.826;10.880;2022-10-17T01:04:24;99255;;;13.91;83.5
4326;BME280;58429;49.826;10.880;2022-10-17T01:05:25;99255;;;13.97;83.34
4326;BME280;58429;49.826;10.880;2022-10-17T01:06:24;99257;;;13.91;83
4326;BME280;58429;49.826;10.880;2022-10-17T01:07:24;99255;;;13.9;82.81
4326;BME280;58429;49.826;10.880;2022-10-17T01:08:24;99261;;;13.87;82.92
4326;BME280;58429;49.826;10.880;2022-10-17T01:09:24;99259;;;13.89;83.02
4326;BME280;58429;49.826;10.880;2022-10-17T01:10:25;99259;;;13.88;82.8
4326;BME280;58429;49.826;10.880;2022-10-17T01:11:28;99259;;;13.86;83.14
4326;BME280;58429;49.826;10.880;2022-10-17T01:12:25;99264;;;13.86;83.24
4326;BME280;58429;49.826;10.880;2022-10-17T01:13:27;99263;;;13.86;83.73
4326;BME280;58429;49.826;10.880;2022-10-17T01:14:26;99257;;;13.89;84.85
4326;BME280;58429;49.826;10.880;2022-10-17T01:15:28;99263;;;13.87;83.77
4326;BME280;58429;49.826;10.880;2022-10-17T01:16:27;99260;;;13.85;83.7
4326;BME280;58429;49.826;10.880;2022-10-17T01:17:26;99257;;;13.87;84.16
4326;BME280;58429;49.826;10.880;2022-10-17T01:18:28;99261;;;13.86;83.67
4326;BME280;58429;49.826;10.880;2022-10-17T01:19:31;99255;;;13.85;84.07
4326;BME280;58429;49.826;10.880;2022-10-17T01:21:31;99257;;;13.86;84.04
4326;BME280;58429;49.826;10.880;2022-10-17T01:21:31;99259;;;13.85;84.25
4326;BME280;58429;49.826;10.880;2022-10-17T01:22:25;99260;;;13.86;84.27
4326;BME280;58429;49.826;10.880;2022-10-17T01:23:39;99254;;;13.87;84.53
4326;BME280;58429;49.826;10.880;2022-10-17T01:24:45;99258;;;13.89;84.57
4326;BME280;58429;49.826;10.880;2022-10-17T01:25:26;99261;;;13.88;84.36
4326;BME280;58429;49.826;10.880;2022-10-17T01:26:26;99261;;;13.85;84.07
4326;BME280;58429;49.826;10.880;2022-10-17T01:27:28;99260;;;13.86;83.67
4326;BME280;58429;49.826;10.880;2022-10-17T01:28:30;99258;;;13.83;83.51
4326;BME280;58429;49.826;10.880;2022-10-17T01:29:29;99259;;;13.83;83.64
4326;BME280;58429;49.826;10.880;2022-10-17T01:30:28;99258;;;13.84;83.62
4326;BME280;58429;49.826;10.880;2022-10-17T01:31:25;99262;;;13.83;83.7
4326;BME280;58429;49.826;10.880;2022-10-17T01:32:26;99258;;;13.85;83.61
4326;BME280;58429;49.826;10.880;2022-10-17T01:33:28;99254;;;13.84;83.63
4326;BME280;58429;49.826;10.880;2022-10-17T01:34:26;99255;;;13.82;84.14
4326;BME280;58429;49.826;10.880;2022-10-17T01:35:25;99256;;;13.84;84.53
4326;BME280;58429;49.826;10.880;2022-10-17T01:36:27;99260;;;13.81;84.17
4326;BME280;58429;49.826;10.880;2022-10-17T01:37:26;99257;;;13.83;84.59
4326;BME280;58429;49.826;10.880;2022-10-17T01:38:25;99257;;;13.83;84.32
4326;BME280;58429;49.826;10.880;2022-10-17T01:39:26;99254;;;13.86;85.53
4326;BME280;58429;49.826;10.880;2022-10-17T01:40:26;99257;;;13.83;84.82
4326;BME280;58429;49.826;10.880;2022-10-17T01:41:26;99255;;;13.78;84.23
4326;BME280;58429;49.826;10.880;2022-10-17T01:42:25;99251;;;13.77;84.06
4326;BME280;58429;49.826;10.880;2022-10-17T01:43:25;99254;;;13.74;84.12
4326;BME280;58429;49.826;10.880;2022-10-17T01:44:26;99253;;;13.75;84.13
4326;BME280;58429;49.826;10.880;2022-10-17T01:45:26;99252;;;13.71;85.14
4326;BME280;58429;49.826;10.880;2022-10-17T01:46:26;99256;;;13.76;84.79
4326;BME280;58429;49.826;10.880;2022-10-17T01:47:25;99263;;;13.77;84.23
4326;BME280;58429;49.826;10.880;2022-10-17T01:48:26;99251;;;13.74;83.91
4326;BME280;58429;49.826;10.880;2022-10-17T01:49:25;99259;;;13.75;84.92
4326;BME280;58429;49.826;10.880;2022-10-17T01:50:26;99253;;;13.76;84.97
4326;BME280;58429;49.826;10.880;2022-10-17T01:51:26;99253;;;13.73;84.31
4326;BME280;58429;49.826;10.880;2022-10-17T01:52:25;99252;;;13.71;84.04
4326;BME280;58429;49.826;10.880;2022-10-17T01:53:26;99254;;;13.72;85.4
4326;BME280;58429;49.826;10.880;2022-10-17T01:54:26;99256;;;13.74;85.36
4326;BME280;58429;49.826;10.880;2022-10-17T01:55:25;99257;;;13.82;85.76
4326;BME280;58429;49.826;10.880;2022-10-17T01:56:25;99260;;;13.84;85.77
4326;BME280;58429;49.826;10.880;2022-10-17T01:57:26;99257;;;13.84;85.11
4326;BME280;58429;49.826;10.880;2022-10-17T01:58:25;99257;;;13.81;84.21
4326;BME280;58429;49.826;10.880;2022-10-17T01:59:26;99260;;;13.78;84.07
4326;BME280;58429;49.826;10.880;2022-10-17T02:00:25;99265;;;13.77;84.49
4326;BME280;58429;49.826;10.880;2022-10-17T02:01:24;99258;;;13.7;83.94
4326;BME280;58429;49.826;10.880;2022-10-17T02:02:25;99260;;;13.7;85.02
4326;BME280;58429;49.826;10.880;2022-10-17T02:03:24;99258;;;13.7;85.25
4326;BME280;58429;49.826;10.880;2022-10-17T02:04:24;99257;;;13.65;84.6
4326;BME280;58429;49.826;10.880;2022-10-17T02:05:25;99259;;;13.65;85.01
4326;BME280;58429;49.826;10.880;2022-10-17T02:06:24;99257;;;13.65;84.49
4326;BME280;58429;49.826;10.880;2022-10-17T02:07:24;99260;;;13.62;84.22
4326;BME280;58429;49.826;10.880;2022-10-17T02:08:26;99262;;;13.6;84.15
4326;BME280;58429;49.826;10.880;2022-10-17T02:09:25;99255;;;13.56;83.94
4326;BME280;58429;49.826;10.880;2022-10-17T02:10:28;99258;;;13.53;83.98
4326;BME280;58429;49.826;10.880;2022-10-17T02:11:25;99262;;;13.54;83.81
4326;BME280;58429;49.826;10.880;2022-10-17T02:12:27;99261;;;13.5;83.73
4326;BME280;58429;49.826;10.880;2022-10-17T02:13:27;99267;;;13.47;83.65
4326;BME280;58429;49.826;10.880;2022-10-17T02:14:27;99263;;;13.39;83.51
4326;BME280;58429;49.826;10.880;2022-10-17T02:15:28;99259;;;13.37;83.39
4326;BME280;58429;49.826;10.880;2022-10-17T02:16:27;99261;;;13.38;83.23
4326;BME280;58429;49.826;10.880;2022-10-17T02:17:27;99264;;;13.35;83.24
4326;BME280;58429;49.826;10.880;2022-10-17T02:18:29;99265;;;13.34;83.22
4326;BME280;58429;49.826;10.880;2022-10-17T02:19:29;99265;;;13.33;83.23
4326;BME280;58429;49.826;10.880;2022-10-17T02:20:26;99266;;;13.33;83.22
4326;BME280;58429;49.826;10.880;2022-10-17T02:21:26;99268;;;13.28;83.25
4326;BME280;58429;49.826;10.880;2022-10-17T02:22:26;99261;;;13.27;83.43
4326;BME280;58429;49.826;10.880;2022-10-17T02:23:26;99265;;;13.25;83.39
4326;BME280;58429;49.826;10.880;2022-10-17T02:24:26;99264;;;13.27;83.48
4326;BME280;58429;49.826;10.880;2022-10-17T02:25:28;99268;;;13.25;84.21
4326;BME280;58429;49.826;10.880;2022-10-17T02:26:25;99264;;;13.26;84.47
4326;BME280;58429;49.826;10.880;2022-10-17T02:27:28;99264;;;13.25;84.33
4326;BME280;58429;49.826;10.880;2022-10-17T02:28:26;99264;;;13.2;84.27
4326;BME280;58429;49.826;10.880;2022-10-17T02:29:25;99266;;;13.23;84.6
4326;BME280;58429;49.826;10.880;2022-10-17T02:30:26;99269;;;13.24;84.41
4326;BME280;58429;49.826;10.880;2022-10-17T02:31:25;99263;;;13.19;84.09
4326;BME280;58429;49.826;10.880;2022-10-17T02:32:25;99263;;;13.19;83.81
4326;BME280;58429;49.826;10.880;2022-10-17T02:33:26;99264;;;13.11;83.7
4326;BME280;58429;49.826;10.880;2022-10-17T02:34:25;99264;;;13.06;83.54
4326;BME280;58429;49.826;10.880;2022-10-17T02:35:26;99261;;;13.1;83.63
4326;BME280;58429;49.826;10.880;2022-10-17T02:36:26;99253;;;13.07;83.71
4326;BME280;58429;49.826;10.880;2022-10-17T02:37:25;99263;;;13.04;83.67
4326;BME280;58429;49.826;10.880;2022-10-17T02:38:25;99256;;;13.02;83.46
4326;BME280;58429;49.826;10.880;2022-10-17T02:39:25;99262;;;12.97;83.38
4326;BME280;58429;49.826;10.880;2022-10-17T02:40:25;99262;;;12.96;83.4
4326;BME280;58429;49.826;10.880;2022-10-17T02:41:25;99256;;;12.93;83.33
4326;BME280;58429;49.826;10.880;2022-10-17T02:42:25;99259;;;12.95;83.38
4326;BME280;58429;49.826;10.880;2022-10-17T02:43:25;99261;;;12.89;83.43
4326;BME280;58429;49.826;10.880;2022-10-17T02:44:25;99265;;;12.88;83.41
4326;BME280;58429;49.826;10.880;2022-10-17T02:45:25;99265;;;12.89;83.41
4326;BME280;58429;49.826;10.880;2022-10-17T02:46:25;99266;;;12.87;83.42
4326;BME280;58429;49.826;10.880;2022-10-17T02:47:25;99258;;;12.91;83.34
4326;BME280;58429;49.826;10.880;2022-10-17T02:48:26;99266;;;12.88;83.23
4326;BME280;58429;49.826;10.880;2022-10-17T02:49:26;99268;;;12.87;83.21
4326;BME280;58429;49.826;10.880;2022-10-17T02:50:26;99270;;;12.86;83.11
4326;BME280;58429;49.826;10.880;2022-10-17T02:51:27;99271;;;12.86;82.98
4326;BME280;58429;49.826;10.880;2022-10-17T02:52:26;99264;;;12.84;82.91
4326;BME280;58429;49.826;10.880;2022-10-17T02:53:28;99270;;;12.85;82.94
4326;BME280;58429;49.826;10.880;2022-10-17T02:54:27;99264;;;12.87;83.01
4326;BME280;58429;49.826;10.880;2022-10-17T02:55:31;99268;;;12.83;82.99
4326;BME280;58429;49.826;10.880;2022-10-17T02:56:25;99261;;;12.84;83.03
4326;BME280;58429;49.826;10.880;2022-10-17T02:57:26;99265;;;12.84;82.87
4326;BME280;58429;49.826;10.880;2022-10-17T02:58:25;99275;;;12.84;82.86
4326;BME280;58429;49.826;10.880;2022-10-17T02:59:25;99272;;;12.83;82.98
4326;BME280;58429;49.826;10.880;2022-10-17T03:00:25;99276;;;12.82;83.14
4326;BME280;58429;49.826;10.880;2022-10-17T03:01:25;99271;;;12.83;83.3
4326;BME280;58429;49.826;10.880;2022-10-17T03:02:25;99270;;;12.84;83.38
4326;BME280;58429;49.826;10.880;2022-10-17T03:03:25;99273;;;12.83;83.32
4326;BME280;58429;49.826;10.880;2022-10-17T03:04:25;99273;;;12.8;83.33
4326;BME280;58429;49.826;10.880;2022-10-17T03:05:26;99276;;;12.82;83.33
4326;BME280;58429;49.826;10.880;2022-10-17T03:06:25;99275;;;12.81;83.32
4326;BME280;58429;49.826;10.880;2022-10-17T03:07:25;99269;;;12.8;83.48
4326;BME280;58429;49.826;10.880;2022-10-17T03:08:25;99274;;;12.83;83.6
4326;BME280;58429;49.826;10.880;2022-10-17T03:09:25;99275;;;12.83;83.88
4326;BME280;58429;49.826;10.880;2022-10-17T03:10:25;99271;;;12.82;84.07
4326;BME280;58429;49.826;10.880;2022-10-17T03:11:25;99281;;;12.81;84.04
4326;BME280;58429;49.826;10.880;2022-10-17T03:12:25;99281;;;12.84;83.96
4326;BME280;58429;49.826;10.880;2022-10-17T03:13:25;99282;;;12.82;83.85
4326;BME280;58429;49.826;10.880;2022-10-17T03:14:25;99275;;;12.79;83.79
4326;BME280;58429;49.826;10.880;2022-10-17T03:15:25;99281;;;12.82;83.75
4326;BME280;58429;49.826;10.880;2022-10-17T03:16:25;99285;;;12.79;83.67
4326;BME280;58429;49.826;10.880;2022-10-17T03:17:25;99273;;;12.81;83.68
4326;BME280;58429;49.826;10.880;2022-10-17T03:18:25;99283;;;12.78;83.59
4326;BME280;58429;49.826;10.880;2022-10-17T03:19:25;99279;;;12.78;83.56
4326;BME280;58429;49.826;10.880;2022-10-17T03:20:26;99282;;;12.8;83.53
4326;BME280;58429;49.826;10.880;2022-10-17T03:21:25;99283;;;12.76;83.45
4326;BME280;58429;49.826;10.880;2022-10-17T03:22:25;99272;;;12.79;83.38
4326;BME280;58429;49.826;10.880;2022-10-17T03:23:25;99282;;;12.76;83.33
4326;BME280;58429;49.826;10.880;2022-10-17T03:24:25;99275;;;12.75;83.29
4326;BME280;58429;49.826;10.880;2022-10-17T03:25:25;99283;;;12.77;83.5
4326;BME280;58429;49.826;10.880;2022-10-17T03:26:25;99285;;;12.75;83.61
4326;BME280;58429;49.826;10.880;2022-10-17T03:27:25;99283;;;12.76;83.34
4326;BME280;58429;49.826;10.880;2022-10-17T03:28:25;99281;;;12.72;83.1
4326;BME280;58429;49.826;10.880;2022-10-17T03:29:25;99282;;;12.71;82.92
4326;BME280;58429;49.826;10.880;2022-10-17T03:30:25;99286;;;12.71;82.96
4326;BME280;58429;49.826;10.880;2022-10-17T03:31:25;99293;;;12.68;82.96
4326;BME280;58429;49.826;10.880;2022-10-17T03:32:25;99290;;;12.69;83.01
4326;BME280;58429;49.826;10.880;2022-10-17T03:33:25;99285;;;12.65;82.9
4326;BME280;58429;49.826;10.880;2022-10-17T03:34:25;99289;;;12.71;82.99
4326;BME280;58429;49.826;10.880;2022-10-17T03:35:25;99289;;;12.68;83
4326;BME280;58429;49.826;10.880;2022-10-17T03:36:25;99291;;;12.65;82.96
4326;BME280;58429;49.826;10.880;2022-10-17T03:37:25;99293;;;12.61;82.69
4326;BME280;58429;49.826;10.880;2022-10-17T03:38:25;99288;;;12.62;82.73
4326;BME280;58429;49.826;10.880;2022-10-17T03:39:25;99286;;;12.6;82.74
4326;BME280;58429;49.826;10.880;2022-10-17T03:40:25;99288;;;12.59;82.81
4326;BME280;58429;49.826;10.880;2022-10-17T03:41:25;99289;;;12.55;82.89
4326;BME280;58429;49.826;10.880;2022-10-17T03:42:25;99286;;;12.57;82.9
4326;BME280;58429;49.826;10.880;2022-10-17T03:43:25;99283;;;12.58;82.9
4326;BME280;58429;49.826;10.880;2022-10-17T03:44:25;99289;;;12.53;82.96
4326;BME280;58429;49.826;10.880;2022-10-17T03:45:25;99290;;;12.53;83
4326;BME280;58429;49.826;10.880;2022-10-17T03:46:30;99288;;;12.53;82.99
4326;BME280;58429;49.826;10.880;2022-10-17T03:47:25;99287;;;12.54;83.06
4326;BME280;58429;49.826;10.880;2022-10-17T03:48:25;99287;;;12.49;83.17
4326;BME280;58429;49.826;10.880;2022-10-17T03:49:25;99287;;;12.49;83.23
4326;BME280;58429;49.826;10.880;2022-10-17T03:50:25;99295;;;12.48;83.16
4326;BME280;58429;49.826;10.880;2022-10-17T03:51:25;99292;;;12.43;83.27
4326;BME280;58429;49.826;10.880;2022-10-17T03:52:25;99292;;;12.42;83.43
4326;BME280;58429;49.826;10.880;2022-10-17T03:53:25;99291;;;12.43;83.59
4326;BME280;58429;49.826;10.880;2022-10-17T03:54:25;99298;;;12.4;83.61
4326;BME280;58429;49.826;10.880;2022-10-17T03:55:25;99301;;;12.41;83.65
4326;BME280;58429;49.826;10.880;2022-10-17T03:56:25;99299;;;12.41;83.67
4326;BME280;58429;49.826;10.880;2022-10-17T03:57:25;99305;;;12.38;83.68
4326;BME280;58429;49.826;10.880;2022-10-17T03:58:25;99295;;;12.38;83.81
4326;BME280;58429;49.826;10.880;2022-10-17T03:59:25;99299;;;12.39;83.85
4326;BME280;58429;49.826;10.880;2022-10-17T04:00:25;99301;;;12.39;83.95
4326;BME280;58429;49.826;10.880;2022-10-17T04:01:25;99306;;;12.4;83.88
4326;BME280;58429;49.826;10.880;2022-10-17T04:02:25;99305;;;12.42;83.83
4326;BME280;58429;49.826;10.880;2022-10-17T04:03:25;99300;;;12.37;83.77
4326;BME280;58429;49.826;10.880;2022-10-17T04:04:25;99296;;;12.38;83.91
4326;BME280;58429;49.826;10.880;2022-10-17T04:05:25;99302;;;12.41;84.13
4326;BME280;58429;49.826;10.880;2022-10-17T04:06:25;99306;;;12.39;84.17
4326;BME280;58429;49.826;10.880;2022-10-17T04:07:25;99297;;;12.38;84.27
4326;BME280;58429;49.826;10.880;2022-10-17T04:08:25;99292;;;12.39;84.36
4326;BME280;58429;49.826;10.880;2022-10-17T04:09:25;99307;;;12.36;84.36
4326;BME280;58429;49.826;10.880;2022-10-17T04:10:25;99310;;;12.32;84.62
4326;BME280;58429;49.826;10.880;2022-10-17T04:11:25;99306;;;12.33;84.47
4326;BME280;58429;49.826;10.880;2022-10-17T04:12:25;99305;;;12.31;84.25
4326;BME280;58429;49.826;10.880;2022-10-17T04:13:25;99304;;;12.31;84.13
4326;BME280;58429;49.826;10.880;2022-10-17T04:14:25;99308;;;12.29;84.13
4326;BME280;58429;49.826;10.880;2022-10-17T04:15:25;99314;;;12.28;84.25
4326;BME280;58429;49.826;10.880;2022-10-17T04:16:25;99304;;;12.27;84.67
4326;BME280;58429;49.826;10.880;2022-10-17T04:17:25;99314;;;12.27;84.76
4326;BME280;58429;49.826;10.880;2022-10-17T04:18:25;99321;;;12.23;84.85
4326;BME280;58429;49.826;10.880;2022-10-17T04:19:25;99315;;;12.27;85.05
4326;BME280;58429;49.826;10.880;2022-10-17T04:20:25;99313;;;12.27;85.11
4326;BME280;58429;49.826;10.880;2022-10-17T04:21:25;99317;;;12.25;85.09
4326;BME280;58429;49.826;10.880;2022-10-17T04:22:25;99316;;;12.29;85.14
4326;BME280;58429;49.826;10.880;2022-10-17T04:23:25;99318;;;12.27;85.3
4326;BME280;58429;49.826;10.880;2022-10-17T04:24:25;99317;;;12.28;85.57
4326;BME280;58429;49.826;10.880;2022-10-17T04:25:25;99312;;;12.31;85.5
4326;BME280;58429;49.826;10.880;2022-10-17T04:26:25;99317;;;12.31;85.67
4326;BME280;58429;49.826;10.880;2022-10-17T04:27:25;99315;;;12.33;85.95
4326;BME280;58429;49.826;10.880;2022-10-17T04:28:26;99319;;;12.33;85.84
4326;BME280;58429;49.826;10.880;2022-10-17T04:29:25;99317;;;12.36;85.77
4326;BME280;58429;49.826;10.880;2022-10-17T04:30:25;99319;;;12.36;85.58
4326;BME280;58429;49.826;10.880;2022-10-17T04:31:25;99323;;;12.33;85.38
4326;BME280;58429;49.826;10.880;2022-10-17T04:32:25;99319;;;12.33;85.28
4326;BME280;58429;49.826;10.880;2022-10-17T04:33:25;99325;;;12.29;84.96
4326;BME280;58429;49.826;10.880;2022-10-17T04:34:25;99319;;;12.25;84.72
4326;BME280;58429;49.826;10.880;2022-10-17T04:35:25;99325;;;12.18;84.4
4326;BME280;58429;49.826;10.880;2022-10-17T04:36:25;99324;;;12.1;84.32
4326;BME280;58429;49.826;10.880;2022-10-17T04:37:25;99321;;;12.07;84.33
4326;BME280;58429;49.826;10.880;2022-10-17T04:38:25;99324;;;12.06;84.43
4326;BME280;58429;49.826;10.880;2022-10-17T04:39:25;99323;;;12.05;84.49
4326;BME280;58429;49.826;10.880;2022-10-17T04:40:25;99325;;;12.01;84.41
4326;BME280;58429;49.826;10.880;2022-10-17T04:41:25;99324;;;12;84.26
4326;BME280;58429;49.826;10.880;2022-10-17T04:42:27;99326;;;11.96;84.16
4326;BME280;58429;49.826;10.880;2022-10-17T04:43:25;99328;;;11.94;83.95
4326;BME280;58429;49.826;10.880;2022-10-17T04:44:25;99329;;;11.9;83.83
4326;BME280;58429;49.826;10.880;2022-10-17T04:45:25;99335;;;11.84;83.76
4326;BME280;58429;49.826;10.880;2022-10-17T04:46:25;99327;;;11.79;83.86
4326;BME280;58429;49.826;10.880;2022-10-17T04:47:25;99331;;;11.77;84
4326;BME280;58429;49.826;10.880;2022-10-17T04:48:26;99336;;;11.73;84.09
4326;BME280;58429;49.826;10.880;2022-10-17T04:49:25;99330;;;11.73;84.16
4326;BME280;58429;49.826;10.880;2022-10-17T04:50:25;99331;;;11.74;84.12
4326;BME280;58429;49.826;10.880;2022-10-17T04:51:25;99333;;;11.74;84.28
4326;BME280;58429;49.826;10.880;2022-10-17T04:52:25;99334;;;11.73;84.32
4326;BME280;58429;49.826;10.880;2022-10-17T04:53:25;99321;;;11.72;84.36
4326;BME280;58429;49.826;10.880;2022-10-17T04:54:25;99329;;;11.77;84.38
4326;BME280;58429;49.826;10.880;2022-10-17T04:55:25;99321;;;11.76;84.41
4326;BME280;58429;49.826;10.880;2022-10-17T04:56:25;99335;;;11.75;84.44
4326;BME280;58429;49.826;10.880;2022-10-17T04:57:25;99329;;;11.78;84.51
4326;BME280;58429;49.826;10.880;2022-10-17T04:58:27;99332;;;11.79;84.46
4326;BME280;58429;49.826;10.880;2022-10-17T04:59:25;99331;;;11.78;84.5
4326;BME280;58429;49.826;10.880;2022-10-17T05:00:25;99332;;;11.75;84.47
4326;BME280;58429;49.826;10.880;2022-10-17T05:01:25;99334;;;11.77;84.4
4326;BME280;58429;49.826;10.880;2022-10-17T05:02:25;99332;;;11.79;84.42
4326;BME280;58429;49.826;10.880;2022-10-17T05:03:25;99330;;;11.81;84.37
4326;BME280;58429;49.826;10.880;2022-10-17T05:04:25;99337;;;11.73;84.39
4326;BME280;58429;49.826;10.880;2022-10-17T05:05:25;99334;;;11.66;84.34
4326;BME280;58429;49.826;10.880;2022-10-17T05:06:25;99339;;;11.62;84.27
4326;BME280;58429;49.826;10.880;2022-10-17T05:07:25;99337;;;11.59;84.32
4326;BME280;58429;49.826;10.880;2022-10-17T05:08:25;99335;;;11.53;84.34
4326;BME280;58429;49.826;10.880;2022-10-17T05:09:25;99337;;;11.46;84.36
4326;BME280;58429;49.826;10.880;2022-10-17T05:10:25;99336;;;11.42;84.36
4326;BME280;58429;49.826;10.880;2022-10-17T05:11:25;99336;;;11.45;84.38
4326;BME280;58429;49.826;10.880;2022-10-17T05:12:25;99340;;;11.45;84.33
4326;BME280;58429;49.826;10.880;2022-10-17T05:13:25;99334;;;11.42;84.29
4326;BME280;58429;49.826;10.880;2022-10-17T05:14:25;99338;;;11.51;84.29
4326;BME280;58429;49.826;10.880;2022-10-17T05:15:25;99338;;;11.5;84.21
4326;BME280;58429;49.826;10.880;2022-10-17T05:16:25;99340;;;11.49;84.22
4326;BME280;58429;49.826;10.880;2022-10-17T05:17:25;99339;;;11.45;84.24
4326;BME280;58429;49.826;10.880;2022-10-17T05:18:25;99343;;;11.44;84.19
4326;BME280;58429;49.826;10.880;2022-10-17T05:19:25;99335;;;11.39;84.17
4326;BME280;58429;49.826;10.880;2022-10-17T05:20:25;99340;;;11.38;84.27
4326;BME280;58429;49.826;10.880;2022-10-17T05:21:26;99339;;;11.35;84.29
4326;BME280;58429;49.826;10.880;2022-10-17T05:22:25;99337;;;11.38;84.31
4326;BME280;58429;49.826;10.880;2022-10-17T05:23:26;99337;;;11.36;84.26
4326;BME280;58429;49.826;10.880;2022-10-17T05:24:25;99344;;;11.35;84.35
4326;BME280;58429;49.826;10.880;2022-10-17T05:25:25;99338;;;11.36;84.43
4326;BME280;58429;49.826;10.880;2022-10-17T05:26:25;99348;;;11.35;84.42
4326;BME280;58429;49.826;10.880;2022-10-17T05:27:25;99349;;;11.32;84.44
4326;BME280;58429;49.826;10.880;2022-10-17T05:28:25;99337;;;11.34;84.42
4326;BME280;58429;49.826;10.880;2022-10-17T05:29:25;99342;;;11.32;84.38
4326;BME280;58429;49.826;10.880;2022-10-17T05:30:25;99353;;;11.32;84.38
4326;BME280;58429;49.826;10.880;2022-10-17T05:31:25;99349;;;11.3;84.46